Locatie 51° 56′ 37″.87 NB – 05° 58’47”.70 OL

Webcam1-NNO Meer informatie Webcam1-NNO


Webcam2-ZZO Meer informatie Webcam2-ZZO


Bezoek ook deze websites:

Template documentatie
en downloads

Weer Sluispark Leuven

Allesoversterrenkunde.nl

Luchtkwaliteit Beekenoord



METAR rapporten vliegvelden

   
EHVK - Volkel Rnlafb, Netherlands
Afstand tot: ZW 18 km
Gewijzigd: 16-04-2024 13:13
Grotendeels bewolkt  
Grotendeels bewolkt  
   Wind: WNW 18.5 km/h
Wind: WNW 18.5 km/h
Temperatuur: 11°C
Dauwpunt: 7°C
Vochtigheid: 77%
Barometer: 1002 hPa
Bewolking: Grotendeels bewolkt
Zicht: meer dan 10 km
Bewolking: Licht bewolkt 2000 ft,
Gedeeltelijk bewolkt 2500 ft,
Grotendeels bewolkt 4800 ft
EHVK 161113Z AUTO 29010KT 250V330 9999 FEW020 SCT025 BKN048 11/07 Q1002 BLU TEMPO 31015G25KT 4500 SHRA SCT010 SCT015CB BKN020
EDLV - Niederrhein, Germany
Afstand tot: ZO 25 km
Gewijzigd: 16-04-2024 12:50
Grotendeels bewolkt  
Grotendeels bewolkt  
   Wind: WNW 25.9 km/h<br />Gust to 25.9 km/h
Wind: WNW 25.9 km/h
Gust to 25.9 km/h
Temperatuur: 11°C
Dauwpunt: 5°C
Vochtigheid: 67%
Barometer: 1001 hPa
Bewolking: Grotendeels bewolkt
Zicht: meer dan 10 km
Bewolking: Licht bewolkt 2100 ft,
Grotendeels bewolkt 2700 ft,
Grotendeels bewolkt 3500 ft
EDLV 161050Z 29014G24KT 260V320 9999 FEW021 BKN027 BKN035 11/05 Q1001
EHDL - Deelen Rnlafb, Netherlands
Afstand tot: N 35 km
Gewijzigd: 16-04-2024 12:55
Grotendeels bewolkt  
Grotendeels bewolkt  
   Wind: NW 27.8 km/h<br />Gust to 27.8 km/h
Wind: NW 27.8 km/h
Gust to 27.8 km/h
Temperatuur: 10°C
Voelt als: 7°C
Dauwpunt: 6°C
Vochtigheid: 76%
Barometer: 1001 hPa
Bewolking: Grotendeels bewolkt
Zicht: meer dan 10 km
Bewolking: Licht bewolkt 1600 ft,
Gedeeltelijk bewolkt 2000 ft,
Grotendeels bewolkt 2400 ft
EHDL 161055Z AUTO 31015G25KT 250V010 9999 FEW016 SCT020 BKN024 10/06 Q1001 WHT
EHEH - Eindhoven Rnlafb, Netherlands
Afstand tot: ZW 48 km
Gewijzigd: 16-04-2024 12:55
Grotendeels bewolkt  
Grotendeels bewolkt  
   Wind: WNW 33.3 km/h<br />Gust to 33.3 km/h
Wind: WNW 33.3 km/h
Gust to 33.3 km/h
Temperatuur: 10°C
Voelt als: 6°C
Dauwpunt: 6°C
Vochtigheid: 76%
Barometer: 1003 hPa
Bewolking: Grotendeels bewolkt
Zicht: 6 km
Bewolking: Licht bewolkt 1800 ft,
Gedeeltelijk bewolkt 2100 ft,
Grotendeels bewolkt 2600 ft
EHEH 161055Z AUTO 30018G32KT 240V360 6000 // FEW018 SCT021 BKN026 10/06 Q1003 TEMPO 31020G35KT 4000 SHRA SCT014 SCT020CB
EHGR - Gilze-Rijen Rnla, Netherlands
Afstand tot: WZW 70 km
Gewijzigd: 16-04-2024 13:11
Wat regen mogelijk, Grotendeels bewolkt  
Wat regen mogelijk, Grotendeels bewolkt  
   Wind: WNW 33.3 km/h<br />Gust to 33.3 km/h
Wind: WNW 33.3 km/h
Gust to 33.3 km/h
Temperatuur: 10°C
Voelt als: 6°C
Dauwpunt: 6°C
Vochtigheid: 76%
Barometer: 1004 hPa
Bewolking: Grotendeels bewolkt
Zicht: meer dan 10 km
Bewolking: Licht bewolkt 2000 ft,
Grotendeels bewolkt 2400 ft,
Grotendeels bewolkt 2800 ft
EHGR 161111Z AUTO 30018G33KT 260V350 9999 -RA FEW020 BKN024 BKN028 10/06 Q1004 WHT TEMPO 30020G35KT 4000 RA -SHRA SCT010 SCT015CB BKN020
EBBL - Kleine-Brogel(Ba, Belgium
Afstand tot: ZZW 71 km
Gewijzigd: 12-04-2024 17:25
Verouderd
Licht bewolkt  
Licht bewolkt  
   Wind: WZW 22.2 km/h
Wind: WZW 22.2 km/h
Temperatuur: 21°C
Dauwpunt: 11°C
Vochtigheid: 53%
Barometer: 1029 hPa
Bewolking: Licht bewolkt
Zicht: meer dan 10 km
Bewolking: Licht bewolkt 4400 ft
EBBL 121525Z AUTO 24012KT 9999 FEW044/// 21/11 Q1029 BLU

Script ontwikkeld door  Saratoga-weather.org Aangepast voor de template door  Weerstation Leuven

U vindt ons ook hier:

Het Weer Aktueel

UK Metoffice

WeatherCloud

Weather Underground-IWESTE54

BNLWN

AWEKAS

Citizen Weather Observer Program (CWOP)

HAMweather, WeatherForYou, PWS Weather

weerspecialist

Apparatuur in gebruik:

Weerstation
Davis VP2

Weercomputer
Meteobridge Nano SD

Webleverancier
Strato

Davis VP2

Meteobridge Nano SD

Strato